Time;durP1;ratioP1;P1;durP2;ratioP2;P2;SDS_P1;SDS_P2;PMS_P1;PMS_P2;Temp;Humidity;BMP_temperature;BMP_pressure;BME280_temperature;BME280_humidity;BME280_pressure;Samples;Min_cycle;Max_cycle;Signal;HPM_P1;HPM_P2
2022/04/30 00:00:20;;;;;;;13.23;7.10;;;;;;;;;;5044175;28;20028;-71
2022/04/30 00:02:50;;;;;;;13.75;7.03;;;;;;;;;;5036051;28;20041;-71
2022/04/30 00:05:17;;;;;;;12.10;6.65;;;;;;;;;;5027787;28;20124;-71
2022/04/30 00:07:43;;;;;;;13.88;6.65;;;;;;;;;;5036427;28;20049;-71
2022/04/30 00:10:08;;;;;;;13.13;7.10;;;;;;;;;;5033102;28;20037;-71
2022/04/30 00:12:34;;;;;;;16.23;7.00;;;;;;;;;;5030470;28;20032;-71
2022/04/30 00:15:00;;;;;;;12.32;5.93;;;;;;;;;;5042009;28;20509;-71
2022/04/30 00:17:25;;;;;;;12.40;6.00;;;;;;;;;;5043744;28;20063;-71
2022/04/30 00:19:50;;;;;;;14.40;6.28;;;;;;;;;;5038389;28;20037;-71
2022/04/30 00:22:18;;;;;;;10.48;6.22;;;;;;;;;;5030133;28;20437;-71
2022/04/30 00:24:45;;;;;;;12.05;6.20;;;;;;;;;;5026694;28;20633;-71
2022/04/30 00:27:11;;;;;;;14.63;7.32;;;;;;;;;;5026489;28;20651;-71
2022/04/30 00:29:36;;;;;;;15.02;6.00;;;;;;;;;;5036952;28;20525;-71
2022/04/30 00:32:03;;;;;;;13.98;6.55;;;;;;;;;;5025320;28;20514;-71
2022/04/30 00:34:29;;;;;;;11.43;5.95;;;;;;;;;;5034104;28;20049;-71
2022/04/30 00:36:54;;;;;;;11.15;5.63;;;;;;;;;;5027702;28;20041;-71
2022/04/30 00:39:19;;;;;;;13.20;6.07;;;;;;;;;;5042774;28;20509;-71
2022/04/30 00:41:46;;;;;;;11.20;5.72;;;;;;;;;;5032912;28;20031;-71
2022/04/30 00:44:17;;;;;;;10.85;5.95;;;;;;;;;;5036073;28;20132;-71
2022/04/30 00:46:43;;;;;;;11.23;5.80;;;;;;;;;;5029712;28;20057;-71
2022/04/30 00:49:08;;;;;;;11.73;5.60;;;;;;;;;;5031929;28;20463;-71
2022/04/30 00:51:37;;;;;;;11.35;5.82;;;;;;;;;;5037488;28;20025;-70
2022/04/30 00:54:04;;;;;;;11.65;5.78;;;;;;;;;;5036079;28;20665;-71
2022/04/30 00:56:34;;;;;;;12.93;5.80;;;;;;;;;;5026387;28;20415;-71
2022/04/30 00:59:05;;;;;;;11.75;5.47;;;;;;;;;;5037044;28;20063;-71
2022/04/30 01:01:35;;;;;;;12.02;5.13;;;;;;;;;;5026839;28;20038;-71
2022/04/30 01:04:01;;;;;;;12.73;5.53;;;;;;;;;;5030234;28;20033;-71
2022/04/30 01:06:50;;;;;;;11.77;5.30;;;;;;;;;;5036871;28;20041;-70
2022/04/30 01:09:25;;;;;;;11.52;5.50;;;;;;;;;;5037910;28;20511;-71
2022/04/30 01:12:01;;;;;;;10.65;5.82;;;;;;;;;;5037211;28;20051;-71
2022/04/30 01:14:29;;;;;;;9.07;4.88;;;;;;;;;;5036337;28;20441;-71
2022/04/30 01:16:59;;;;;;;9.43;5.38;;;;;;;;;;5045854;28;20502;-71
2022/04/30 01:19:27;;;;;;;9.90;5.78;;;;;;;;;;5026973;28;20034;-71
2022/04/30 01:22:02;;;;;;;11.80;5.60;;;;;;;;;;5033271;28;20540;-71
2022/04/30 01:24:28;;;;;;;14.30;5.28;;;;;;;;;;5035436;28;20536;-70
2022/04/30 01:26:55;;;;;;;11.40;5.47;;;;;;;;;;5034615;28;20029;-71
2022/04/30 01:29:23;;;;;;;10.02;5.30;;;;;;;;;;5031139;28;20041;-71
2022/04/30 01:37:25;;;;;;;13.35;5.18;;;;;;;;;;5035960;28;20056;-71
2022/04/30 01:39:57;;;;;;;11.82;5.50;;;;;;;;;;5040618;28;20033;-71
2022/04/30 01:42:24;;;;;;;11.07;5.72;;;;;;;;;;5047296;28;20748;-70
2022/04/30 01:44:49;;;;;;;11.68;5.82;;;;;;;;;;5035267;28;20044;-70
2022/04/30 01:47:15;;;;;;;9.85;4.43;;;;;;;;;;5044150;28;20064;-71
2022/04/30 01:49:41;;;;;;;12.20;6.15;;;;;;;;;;5046461;28;20048;-71
2022/04/30 01:52:08;;;;;;;11.50;5.55;;;;;;;;;;5047332;28;20029;-71
2022/04/30 01:54:34;;;;;;;19.63;5.90;;;;;;;;;;5038367;28;20153;-71
2022/04/30 01:56:59;;;;;;;11.98;5.82;;;;;;;;;;5047411;28;20104;-71
2022/04/30 01:59:24;;;;;;;11.52;5.47;;;;;;;;;;5032463;28;20203;-71
2022/04/30 02:01:53;;;;;;;11.05;5.40;;;;;;;;;;5047890;28;20297;-71
2022/04/30 02:04:18;;;;;;;11.88;5.75;;;;;;;;;;5030304;28;20045;-71
2022/04/30 02:06:45;;;;;;;13.90;5.80;;;;;;;;;;5033787;28;20087;-71
2022/04/30 02:09:10;;;;;;;10.43;5.40;;;;;;;;;;5046526;28;20671;-70
2022/04/30 02:11:37;;;;;;;10.45;5.65;;;;;;;;;;5033827;28;20035;-71
2022/04/30 02:14:04;;;;;;;11.95;6.15;;;;;;;;;;5042392;28;20033;-71
2022/04/30 02:16:52;;;;;;;13.98;5.85;;;;;;;;;;5041045;28;20112;-70
2022/04/30 02:19:20;;;;;;;10.27;5.57;;;;;;;;;;5036440;28;20108;-71
2022/04/30 02:21:47;;;;;;;14.60;6.20;;;;;;;;;;5047300;28;20060;-70
2022/04/30 02:24:15;;;;;;;12.27;5.85;;;;;;;;;;5050447;28;20021;-71
2022/04/30 02:26:42;;;;;;;13.68;5.78;;;;;;;;;;5035914;28;20067;-71
2022/04/30 02:29:08;;;;;;;12.18;5.50;;;;;;;;;;5042786;28;20029;-71
2022/04/30 02:31:34;;;;;;;12.30;5.72;;;;;;;;;;5041082;28;20064;-70
2022/04/30 02:33:59;;;;;;;12.10;5.95;;;;;;;;;;5048643;28;20040;-71
2022/04/30 02:36:26;;;;;;;14.93;5.40;;;;;;;;;;5047831;28;20031;-71
2022/04/30 02:38:56;;;;;;;9.07;5.05;;;;;;;;;;5043258;28;20162;-71
2022/04/30 02:41:22;;;;;;;12.13;5.70;;;;;;;;;;5030237;28;20025;-71
2022/04/30 02:43:51;;;;;;;15.98;6.50;;;;;;;;;;5041316;28;20038;-71
2022/04/30 02:46:20;;;;;;;11.93;5.22;;;;;;;;;;5029188;28;20527;-71
2022/04/30 02:48:46;;;;;;;15.10;6.10;;;;;;;;;;5046955;28;20552;-71
2022/04/30 02:51:11;;;;;;;11.02;5.38;;;;;;;;;;5043508;28;20036;-71
2022/04/30 02:53:37;;;;;;;11.27;5.05;;;;;;;;;;5049949;28;20119;-71
2022/04/30 02:56:04;;;;;;;13.63;5.57;;;;;;;;;;5043845;28;20037;-71
2022/04/30 03:01:13;;;;;;;12.60;4.72;;;;;;;;;;5039394;28;20049;-71
2022/04/30 03:03:38;;;;;;;10.10;4.50;;;;;;;;;;5042736;28;20013;-70
2022/04/30 03:06:05;;;;;;;9.82;4.97;;;;;;;;;;5043695;28;20053;-71
2022/04/30 03:08:32;;;;;;;11.48;4.45;;;;;;;;;;5042412;28;20521;-71
2022/04/30 03:11:00;;;;;;;7.40;4.38;;;;;;;;;;5033741;28;20037;-71
2022/04/30 03:13:26;;;;;;;9.45;4.95;;;;;;;;;;5048045;28;20053;-70
2022/04/30 03:15:55;;;;;;;9.40;4.80;;;;;;;;;;5046682;28;20072;-71
2022/04/30 03:23:51;;;;;;;10.35;4.40;;;;;;;;;;5044376;28;20120;-71
2022/04/30 03:26:26;;;;;;;18.73;5.15;;;;;;;;;;5043543;28;20128;-71
2022/04/30 03:28:53;;;;;;;11.35;4.63;;;;;;;;;;5045185;28;20518;-71
2022/04/30 03:31:18;;;;;;;10.35;4.63;;;;;;;;;;5035434;28;20038;-71
2022/04/30 03:33:47;;;;;;;9.20;4.18;;;;;;;;;;5030112;28;20026;-71
2022/04/30 03:36:15;;;;;;;12.27;4.55;;;;;;;;;;5056707;28;20032;-71
2022/04/30 03:38:40;;;;;;;10.70;4.82;;;;;;;;;;5039673;28;20021;-70
2022/04/30 03:41:06;;;;;;;8.73;4.57;;;;;;;;;;5037684;28;20041;-70
2022/04/30 03:43:32;;;;;;;8.93;4.35;;;;;;;;;;5046443;28;20040;-71
2022/04/30 03:46:07;;;;;;;10.48;4.47;;;;;;;;;;5039125;28;20033;-71
2022/04/30 03:48:33;;;;;;;11.75;4.50;;;;;;;;;;5048322;28;20025;-70
2022/04/30 03:50:59;;;;;;;9.30;4.45;;;;;;;;;;5047067;28;20028;-70
2022/04/30 03:53:25;;;;;;;12.23;4.70;;;;;;;;;;5045275;28;20029;-70
2022/04/30 03:55:51;;;;;;;10.55;4.43;;;;;;;;;;5036236;28;20098;-71
2022/04/30 03:58:16;;;;;;;7.60;4.40;;;;;;;;;;5042937;28;20046;-71
2022/04/30 04:00:43;;;;;;;9.98;4.20;;;;;;;;;;5046095;28;20409;-71
2022/04/30 04:03:09;;;;;;;9.38;4.22;;;;;;;;;;5041645;28;20033;-71
2022/04/30 04:05:35;;;;;;;13.27;4.55;;;;;;;;;;5048087;28;20480;-70
2022/04/30 04:08:00;;;;;;;11.85;5.43;;;;;;;;;;5042942;28;20124;-71
2022/04/30 04:10:26;;;;;;;8.88;4.25;;;;;;;;;;5039917;28;20124;-69
2022/04/30 04:12:52;;;;;;;9.38;4.47;;;;;;;;;;5042386;28;20120;-70
2022/04/30 04:18:02;;;;;;;10.70;4.88;;;;;;;;;;5034754;28;20048;-71
2022/04/30 04:20:27;;;;;;;9.13;4.18;;;;;;;;;;5046313;28;20033;-71
2022/04/30 04:22:54;;;;;;;8.52;4.13;;;;;;;;;;5045799;28;20120;-71
2022/04/30 04:28:11;;;;;;;7.95;4.03;;;;;;;;;;5044085;28;20170;-70
2022/04/30 04:30:36;;;;;;;12.05;4.70;;;;;;;;;;5047791;28;20510;-70
2022/04/30 04:33:04;;;;;;;11.88;4.57;;;;;;;;;;5044053;28;20048;-70
2022/04/30 04:35:29;;;;;;;12.57;4.97;;;;;;;;;;5052490;28;20028;-71
2022/04/30 04:37:55;;;;;;;10.00;4.32;;;;;;;;;;5042701;28;20048;-71
2022/04/30 04:40:20;;;;;;;10.20;5.10;;;;;;;;;;5035990;28;20048;-70
2022/04/30 04:42:47;;;;;;;11.43;4.60;;;;;;;;;;5035412;28;20076;-70
2022/04/30 04:45:12;;;;;;;10.93;4.68;;;;;;;;;;5044940;28;20558;-70
2022/04/30 04:47:40;;;;;;;11.43;4.68;;;;;;;;;;5045468;28;20121;-70
2022/04/30 04:50:12;;;;;;;10.20;4.55;;;;;;;;;;5045814;28;20034;-70
2022/04/30 04:52:39;;;;;;;12.52;4.78;;;;;;;;;;5043567;28;20091;-70
2022/04/30 04:55:05;;;;;;;11.80;5.07;;;;;;;;;;5040148;28;20045;-70
2022/04/30 04:57:31;;;;;;;12.60;4.50;;;;;;;;;;5043472;28;20029;-70
2022/04/30 04:59:57;;;;;;;10.15;4.22;;;;;;;;;;5039907;28;20032;-71
2022/04/30 05:02:22;;;;;;;8.73;4.53;;;;;;;;;;5044297;28;20267;-71
2022/04/30 05:04:48;;;;;;;10.48;4.60;;;;;;;;;;5046815;28;20045;-71
2022/04/30 05:07:13;;;;;;;8.75;3.92;;;;;;;;;;5046091;28;20064;-71
2022/04/30 05:09:39;;;;;;;8.98;4.38;;;;;;;;;;5043351;28;20044;-71
2022/04/30 05:12:07;;;;;;;9.75;4.75;;;;;;;;;;5041562;28;20104;-71
2022/04/30 05:14:33;;;;;;;12.38;4.95;;;;;;;;;;5039361;28;20032;-70
2022/04/30 05:17:00;;;;;;;9.38;4.45;;;;;;;;;;5041184;28;20045;-70
2022/04/30 05:19:25;;;;;;;12.75;4.78;;;;;;;;;;5037692;28;20067;-71
2022/04/30 05:21:51;;;;;;;10.32;4.47;;;;;;;;;;5044693;28;20037;-71
2022/04/30 05:24:16;;;;;;;12.60;5.03;;;;;;;;;;5041961;28;20103;-71
2022/04/30 05:26:41;;;;;;;10.88;4.90;;;;;;;;;;5047443;28;20037;-70
2022/04/30 05:29:07;;;;;;;8.88;4.60;;;;;;;;;;5040284;28;20517;-70
2022/04/30 05:31:32;;;;;;;10.63;5.10;;;;;;;;;;5045830;28;20041;-70
2022/04/30 05:33:57;;;;;;;11.10;5.05;;;;;;;;;;5035692;28;20052;-70
2022/04/30 05:36:22;;;;;;;14.95;6.63;;;;;;;;;;5045240;28;20021;-70
2022/04/30 05:38:48;;;;;;;9.38;4.35;;;;;;;;;;5035069;28;20056;-70
2022/04/30 05:41:13;;;;;;;11.82;4.80;;;;;;;;;;5038321;28;20070;-70
2022/04/30 05:43:39;;;;;;;14.52;4.93;;;;;;;;;;5043184;28;20041;-70
2022/04/30 05:46:06;;;;;;;11.88;4.97;;;;;;;;;;5038967;28;20045;-71
2022/04/30 05:48:32;;;;;;;12.05;5.53;;;;;;;;;;5044144;28;20029;-70
2022/04/30 05:50:57;;;;;;;12.45;4.80;;;;;;;;;;5038035;28;20403;-71
2022/04/30 05:53:22;;;;;;;14.30;6.60;;;;;;;;;;5024066;28;20514;-69
2022/04/30 05:55:49;;;;;;;14.43;5.20;;;;;;;;;;5038705;28;20495;-70
2022/04/30 05:58:14;;;;;;;13.05;5.22;;;;;;;;;;5039072;28;20132;-71
2022/04/30 06:00:40;;;;;;;13.48;5.32;;;;;;;;;;5044263;28;20029;-70
2022/04/30 06:03:05;;;;;;;12.20;4.82;;;;;;;;;;5051670;28;20021;-70
2022/04/30 06:05:30;;;;;;;13.90;5.47;;;;;;;;;;5047300;28;20045;-70
2022/04/30 06:07:56;;;;;;;10.35;5.50;;;;;;;;;;5044837;28;20044;-71
2022/04/30 06:10:21;;;;;;;12.13;5.22;;;;;;;;;;5045493;28;20040;-70
2022/04/30 06:12:46;;;;;;;20.25;5.45;;;;;;;;;;5050386;28;20060;-70
2022/04/30 06:15:12;;;;;;;12.63;5.00;;;;;;;;;;5040519;28;20025;-71
2022/04/30 06:17:37;;;;;;;10.52;4.80;;;;;;;;;;5035576;28;20041;-70
2022/04/30 06:20:03;;;;;;;12.77;5.03;;;;;;;;;;5038204;28;20456;-70
2022/04/30 06:22:28;;;;;;;13.65;5.60;;;;;;;;;;5040955;28;20579;-70
2022/04/30 06:24:54;;;;;;;11.45;5.50;;;;;;;;;;5047803;28;20591;-70
2022/04/30 06:27:20;;;;;;;12.05;6.13;;;;;;;;;;5055918;28;20125;-71
2022/04/30 06:29:45;;;;;;;10.52;4.95;;;;;;;;;;5039750;28;20037;-71
2022/04/30 06:32:12;;;;;;;13.02;5.38;;;;;;;;;;5046046;28;20044;-70
2022/04/30 06:34:39;;;;;;;11.20;5.05;;;;;;;;;;5038856;28;20036;-71
2022/04/30 06:37:04;;;;;;;11.82;5.43;;;;;;;;;;5034227;28;20044;-71
2022/04/30 06:39:30;;;;;;;18.98;5.70;;;;;;;;;;5041130;28;20033;-70
2022/04/30 06:41:56;;;;;;;14.02;5.45;;;;;;;;;;5044482;28;20021;-70
2022/04/30 06:44:21;;;;;;;14.90;5.47;;;;;;;;;;5040815;28;20040;-71
2022/04/30 06:46:46;;;;;;;14.43;6.18;;;;;;;;;;5042444;28;20669;-71
2022/04/30 06:49:12;;;;;;;15.98;6.28;;;;;;;;;;5044698;28;20083;-70
2022/04/30 06:51:37;;;;;;;14.15;5.45;;;;;;;;;;5038588;28;20017;-70
2022/04/30 06:59:33;;;;;;;13.05;5.40;;;;;;;;;;5041174;28;19969;-71
2022/04/30 07:02:03;;;;;;;13.23;4.53;;;;;;;;;;5038573;28;20036;-70
2022/04/30 07:04:29;;;;;;;13.77;5.43;;;;;;;;;;5027220;28;20044;-70
2022/04/30 07:06:55;;;;;;;13.95;5.60;;;;;;;;;;5036281;28;20102;-70
2022/04/30 07:09:21;;;;;;;10.70;5.40;;;;;;;;;;5040058;28;20036;-71
2022/04/30 07:11:47;;;;;;;10.57;5.15;;;;;;;;;;5027989;28;20026;-70
2022/04/30 07:14:13;;;;;;;14.90;5.20;;;;;;;;;;5036893;28;20064;-70
2022/04/30 07:16:38;;;;;;;10.85;5.20;;;;;;;;;;5032670;28;20067;-70
2022/04/30 07:19:05;;;;;;;14.70;5.63;;;;;;;;;;5040893;28;20065;-71
2022/04/30 07:21:33;;;;;;;12.43;5.18;;;;;;;;;;5040863;28;20079;-70
2022/04/30 07:23:59;;;;;;;10.13;4.47;;;;;;;;;;5037586;28;20021;-70
2022/04/30 07:26:24;;;;;;;8.65;4.60;;;;;;;;;;5038482;28;20549;-70
2022/04/30 07:28:51;;;;;;;10.82;4.82;;;;;;;;;;5037876;28;20454;-70
2022/04/30 07:31:16;;;;;;;10.88;4.82;;;;;;;;;;5034663;28;20048;-70
2022/04/30 07:33:42;;;;;;;7.65;4.47;;;;;;;;;;5036721;28;20049;-71
2022/04/30 07:36:07;;;;;;;10.50;3.92;;;;;;;;;;5044106;28;20094;-70
2022/04/30 07:38:33;;;;;;;12.02;4.60;;;;;;;;;;5046309;28;20064;-71
2022/04/30 07:40:58;;;;;;;9.60;4.40;;;;;;;;;;5032728;28;20388;-70
2022/04/30 07:43:24;;;;;;;8.70;4.85;;;;;;;;;;5042812;28;20037;-70
2022/04/30 07:45:49;;;;;;;11.50;5.07;;;;;;;;;;5039105;28;20592;-70
2022/04/30 07:48:14;;;;;;;7.32;4.28;;;;;;;;;;5029729;28;20029;-69
2022/04/30 07:50:43;;;;;;;10.23;4.55;;;;;;;;;;5034991;28;20430;-71
2022/04/30 07:53:09;;;;;;;10.45;6.07;;;;;;;;;;5039164;28;20483;-70
2022/04/30 07:55:34;;;;;;;9.18;4.60;;;;;;;;;;5038264;28;20116;-71
2022/04/30 07:58:02;;;;;;;6.75;4.30;;;;;;;;;;5029238;28;20050;-71
2022/04/30 08:00:28;;;;;;;7.20;4.07;;;;;;;;;;5037639;28;20104;-71
2022/04/30 08:02:57;;;;;;;8.38;4.32;;;;;;;;;;5031998;28;20025;-71
2022/04/30 08:05:23;;;;;;;6.32;3.83;;;;;;;;;;5041153;28;20033;-71
2022/04/30 08:07:49;;;;;;;8.80;4.65;;;;;;;;;;5037739;28;20175;-70
2022/04/30 08:10:14;;;;;;;9.80;4.53;;;;;;;;;;5042673;28;20123;-70
2022/04/30 08:12:40;;;;;;;9.32;4.30;;;;;;;;;;5035967;28;20364;-71
2022/04/30 08:15:06;;;;;;;8.77;4.68;;;;;;;;;;5039802;28;20017;-70
2022/04/30 08:17:32;;;;;;;7.90;4.50;;;;;;;;;;5032748;28;20029;-71
2022/04/30 08:19:57;;;;;;;12.45;6.47;;;;;;;;;;5034123;28;20033;-71
2022/04/30 08:22:23;;;;;;;9.68;4.78;;;;;;;;;;5027727;28;20041;-70
2022/04/30 08:24:48;;;;;;;7.80;4.07;;;;;;;;;;5034774;28;20092;-71
2022/04/30 08:27:13;;;;;;;10.95;5.97;;;;;;;;;;5036457;28;20051;-71
2022/04/30 08:29:39;;;;;;;10.13;4.97;;;;;;;;;;5040239;28;20033;-71
2022/04/30 08:32:05;;;;;;;11.25;5.15;;;;;;;;;;5031198;28;20091;-70
2022/04/30 08:34:31;;;;;;;7.07;4.20;;;;;;;;;;5041137;28;20045;-71
2022/04/30 08:36:56;;;;;;;9.88;5.50;;;;;;;;;;5032006;28;20103;-71
2022/04/30 08:39:22;;;;;;;8.20;4.97;;;;;;;;;;5036691;28;20029;-70
2022/04/30 08:41:47;;;;;;;11.10;5.28;;;;;;;;;;5032237;28;20037;-70
2022/04/30 08:44:18;;;;;;;9.75;5.13;;;;;;;;;;5027968;28;20057;-70
2022/04/30 08:46:44;;;;;;;8.90;5.32;;;;;;;;;;5035773;28;20541;-70
2022/04/30 08:49:10;;;;;;;12.93;5.70;;;;;;;;;;5027659;28;20045;-70
2022/04/30 08:51:35;;;;;;;11.35;5.47;;;;;;;;;;5035283;28;20420;-70
2022/04/30 08:54:01;;;;;;;11.43;5.55;;;;;;;;;;5040484;28;20056;-71
2022/04/30 08:56:26;;;;;;;8.13;5.05;;;;;;;;;;5036726;28;20036;-71
2022/04/30 08:59:02;;;;;;;11.05;5.57;;;;;;;;;;5028297;28;20464;-71
2022/04/30 09:01:29;;;;;;;8.85;5.38;;;;;;;;;;5033147;28;20123;-71
2022/04/30 09:03:56;;;;;;;10.68;5.53;;;;;;;;;;5025698;28;20091;-70
2022/04/30 09:06:22;;;;;;;10.82;5.68;;;;;;;;;;5040809;28;20071;-70
2022/04/30 09:08:51;;;;;;;10.50;5.95;;;;;;;;;;5033042;28;20688;-70
2022/04/30 09:11:17;;;;;;;9.38;5.47;;;;;;;;;;5042733;28;20044;-70
2022/04/30 09:13:46;;;;;;;8.68;5.93;;;;;;;;;;5040833;28;20446;-70
2022/04/30 09:16:23;;;;;;;11.75;5.68;;;;;;;;;;5026801;28;20041;-70
2022/04/30 09:18:49;;;;;;;10.68;5.18;;;;;;;;;;5023618;28;20040;-70
2022/04/30 09:21:17;;;;;;;11.43;6.75;;;;;;;;;;5038184;28;20114;-70
2022/04/30 09:23:43;;;;;;;11.20;7.22;;;;;;;;;;5025422;28;20042;-70
2022/04/30 09:26:08;;;;;;;11.60;7.20;;;;;;;;;;5025347;28;20045;-70
2022/04/30 09:28:38;;;;;;;11.02;7.25;;;;;;;;;;5033013;28;20419;-70
2022/04/30 09:31:13;;;;;;;13.65;6.78;;;;;;;;;;5026918;28;20039;-70
2022/04/30 09:33:54;;;;;;;10.85;6.78;;;;;;;;;;5027543;28;20017;-70
2022/04/30 09:39:17;;;;;;;10.43;6.43;;;;;;;;;;5031359;28;20106;-70
2022/04/30 09:41:42;;;;;;;13.77;7.45;;;;;;;;;;5030524;28;20111;-70
2022/04/30 09:44:12;;;;;;;13.13;8.70;;;;;;;;;;5039492;28;20475;-69
2022/04/30 09:46:38;;;;;;;11.05;7.57;;;;;;;;;;5039325;28;20132;-69
2022/04/30 09:54:36;;;;;;;12.32;8.88;;;;;;;;;;5037298;28;20425;-69
2022/04/30 09:57:04;;;;;;;11.52;8.57;;;;;;;;;;5037204;28;20034;-70
2022/04/30 09:59:30;;;;;;;14.18;9.07;;;;;;;;;;5039009;28;20037;-71
2022/04/30 10:01:56;;;;;;;12.00;8.95;;;;;;;;;;5038475;28;20067;-69
2022/04/30 10:04:23;;;;;;;13.25;8.75;;;;;;;;;;5040386;28;20057;-70
2022/04/30 10:06:53;;;;;;;11.05;8.05;;;;;;;;;;5027546;28;20037;-70
2022/04/30 10:09:25;;;;;;;14.02;8.18;;;;;;;;;;5033208;28;20021;-70
2022/04/30 10:12:32;;;;;;;11.43;7.90;;;;;;;;;;5036001;28;20041;-70
2022/04/30 10:15:11;;;;;;;9.90;7.85;;;;;;;;;;5032037;28;20151;-70
2022/04/30 10:17:41;;;;;;;10.38;7.18;;;;;;;;;;5038668;28;20194;-70
2022/04/30 10:20:13;;;;;;;12.85;7.70;;;;;;;;;;5035485;28;20068;-70
2022/04/30 10:22:50;;;;;;;10.20;7.03;;;;;;;;;;5043906;28;20540;-70
2022/04/30 10:25:15;;;;;;;8.82;6.40;;;;;;;;;;5030986;28;20049;-71
2022/04/30 10:27:41;;;;;;;9.93;6.65;;;;;;;;;;5035950;28;20017;-71
2022/04/30 10:30:24;;;;;;;13.63;7.38;;;;;;;;;;5039588;28;20067;-70
2022/04/30 10:33:04;;;;;;;10.73;7.53;;;;;;;;;;5044147;28;20033;-71
2022/04/30 10:35:34;;;;;;;10.45;7.07;;;;;;;;;;5035327;28;20956;-71
2022/04/30 10:38:18;;;;;;;10.73;6.55;;;;;;;;;;5030895;28;20033;-71
2022/04/30 10:40:47;;;;;;;10.25;7.40;;;;;;;;;;5023387;28;20558;-70
2022/04/30 10:43:18;;;;;;;9.93;6.53;;;;;;;;;;5039073;28;20037;-70
2022/04/30 10:45:44;;;;;;;12.07;7.70;;;;;;;;;;5031005;28;20502;-70
2022/04/30 10:48:10;;;;;;;14.05;6.50;;;;;;;;;;5041330;28;20036;-70
2022/04/30 10:50:35;;;;;;;13.93;7.28;;;;;;;;;;5040790;28;20064;-70
2022/04/30 10:53:02;;;;;;;10.77;7.65;;;;;;;;;;5043910;28;20048;-70
2022/04/30 10:55:27;;;;;;;12.05;7.10;;;;;;;;;;5037915;28;20087;-70
2022/04/30 10:57:53;;;;;;;13.95;8.15;;;;;;;;;;5045705;28;20040;-71
2022/04/30 11:00:21;;;;;;;11.85;7.60;;;;;;;;;;5032422;28;20037;-71
2022/04/30 11:02:46;;;;;;;12.90;7.45;;;;;;;;;;5034888;28;20033;-71
2022/04/30 11:05:22;;;;;;;13.05;7.40;;;;;;;;;;5034217;28;20041;-70
2022/04/30 11:07:48;;;;;;;12.07;7.60;;;;;;;;;;5033698;28;20786;-71
2022/04/30 11:10:14;;;;;;;15.18;7.55;;;;;;;;;;5038569;28;20533;-71
2022/04/30 11:12:39;;;;;;;12.68;7.80;;;;;;;;;;5045463;28;20056;-70
2022/04/30 11:15:05;;;;;;;12.55;7.32;;;;;;;;;;5041827;28;20490;-70
2022/04/30 11:17:44;;;;;;;11.77;7.38;;;;;;;;;;5044073;28;20037;-70
2022/04/30 11:20:10;;;;;;;11.40;6.82;;;;;;;;;;5037129;28;20033;-70
2022/04/30 11:22:36;;;;;;;11.30;6.88;;;;;;;;;;5043779;28;20036;-70
2022/04/30 11:25:01;;;;;;;10.65;7.15;;;;;;;;;;5045786;28;20405;-70
2022/04/30 11:27:30;;;;;;;12.48;7.68;;;;;;;;;;5045342;28;20056;-70
2022/04/30 11:29:55;;;;;;;16.63;6.97;;;;;;;;;;5043000;28;20024;-70
2022/04/30 11:32:23;;;;;;;10.90;6.57;;;;;;;;;;5037473;28;20032;-70
2022/04/30 11:34:49;;;;;;;11.68;6.68;;;;;;;;;;5041383;28;20041;-70
2022/04/30 11:37:15;;;;;;;12.70;6.95;;;;;;;;;;5026926;28;20056;-70
2022/04/30 11:39:40;;;;;;;12.75;6.80;;;;;;;;;;5046789;28;20017;-69
2022/04/30 11:42:06;;;;;;;10.32;7.00;;;;;;;;;;5029957;28;20034;-68
2022/04/30 11:44:31;;;;;;;12.00;7.57;;;;;;;;;;5036620;28;20048;-69
2022/04/30 11:46:57;;;;;;;12.45;7.20;;;;;;;;;;5029220;28;20041;-68
2022/04/30 11:49:24;;;;;;;14.50;7.75;;;;;;;;;;5043208;28;20046;-69
2022/04/30 11:51:51;;;;;;;11.15;7.03;;;;;;;;;;5036752;28;20115;-69
2022/04/30 11:54:18;;;;;;;13.50;6.85;;;;;;;;;;5029744;28;20036;-69
2022/04/30 11:56:44;;;;;;;12.93;7.15;;;;;;;;;;5028227;28;20396;-69
2022/04/30 11:59:11;;;;;;;10.55;6.55;;;;;;;;;;5028989;28;20036;-69
2022/04/30 12:01:38;;;;;;;11.75;7.00;;;;;;;;;;5038122;28;20033;-69
2022/04/30 12:04:26;;;;;;;12.43;7.32;;;;;;;;;;5036126;28;20115;-69
2022/04/30 12:06:59;;;;;;;11.25;7.10;;;;;;;;;;5029954;28;20052;-69
2022/04/30 12:09:32;;;;;;;13.30;7.50;;;;;;;;;;5042431;28;20537;-68
2022/04/30 12:11:59;;;;;;;11.25;7.25;;;;;;;;;;5034467;28;20375;-69
2022/04/30 12:14:24;;;;;;;11.10;6.68;;;;;;;;;;5042060;28;20059;-69
2022/04/30 12:16:51;;;;;;;9.98;6.13;;;;;;;;;;5036032;28;20045;-68
2022/04/30 12:25:12;;;;;;;9.50;5.82;;;;;;;;;;5036239;28;20098;-68
2022/04/30 12:27:40;;;;;;;10.20;5.60;;;;;;;;;;5040353;28;20032;-68
2022/04/30 12:30:14;;;;;;;9.05;6.30;;;;;;;;;;5034169;28;20537;-69
2022/04/30 12:33:00;;;;;;;11.15;6.20;;;;;;;;;;5037429;28;20049;-68
2022/04/30 12:35:30;;;;;;;12.80;6.03;;;;;;;;;;5030831;28;20033;-68
2022/04/30 12:38:05;;;;;;;9.18;5.70;;;;;;;;;;5034681;28;20411;-68
2022/04/30 12:40:31;;;;;;;9.45;6.13;;;;;;;;;;5031666;28;20033;-68
2022/04/30 12:42:56;;;;;;;13.32;6.30;;;;;;;;;;5033550;28;20052;-68
2022/04/30 12:45:21;;;;;;;8.82;5.85;;;;;;;;;;5037606;28;20033;-68
2022/04/30 12:47:50;;;;;;;10.20;6.10;;;;;;;;;;5037526;28;20124;-68
2022/04/30 12:50:16;;;;;;;9.13;5.97;;;;;;;;;;5035588;28;20445;-68
2022/04/30 12:52:42;;;;;;;9.45;6.13;;;;;;;;;;5033011;28;20515;-68
2022/04/30 12:55:08;;;;;;;9.93;5.82;;;;;;;;;;5036326;28;20037;-69
2022/04/30 12:57:33;;;;;;;9.57;5.70;;;;;;;;;;5037778;28;20028;-68
2022/04/30 13:00:00;;;;;;;11.10;6.78;;;;;;;;;;5028795;28;20021;-69
2022/04/30 13:02:27;;;;;;;8.50;5.63;;;;;;;;;;5034867;28;20041;-69
2022/04/30 13:04:52;;;;;;;9.52;5.90;;;;;;;;;;5038477;28;20045;-69
2022/04/30 13:07:18;;;;;;;9.63;6.05;;;;;;;;;;5040107;28;20033;-68
2022/04/30 13:15:11;;;;;;;9.77;6.07;;;;;;;;;;5036660;28;19987;-69
2022/04/30 13:17:38;;;;;;;9.55;6.20;;;;;;;;;;5028571;28;20078;-68
2022/04/30 13:20:05;;;;;;;9.70;6.50;;;;;;;;;;5034897;28;20041;-68
2022/04/30 13:22:30;;;;;;;9.38;6.32;;;;;;;;;;5035147;28;20064;-68
2022/04/30 13:24:55;;;;;;;11.52;6.60;;;;;;;;;;5035480;28;20123;-69
2022/04/30 13:27:21;;;;;;;10.15;6.65;;;;;;;;;;5039588;28;20082;-69
2022/04/30 13:29:46;;;;;;;12.80;6.70;;;;;;;;;;5037548;28;20094;-68
2022/04/30 13:32:11;;;;;;;10.48;6.43;;;;;;;;;;5039177;28;20495;-69
2022/04/30 13:34:37;;;;;;;10.52;6.55;;;;;;;;;;5036058;28;20600;-68
2022/04/30 13:37:02;;;;;;;8.75;5.82;;;;;;;;;;5035143;28;20103;-69
2022/04/30 13:39:28;;;;;;;9.63;6.30;;;;;;;;;;5037962;28;20022;-68
2022/04/30 13:41:54;;;;;;;8.48;5.72;;;;;;;;;;5033127;28;20064;-68
2022/04/30 13:44:19;;;;;;;10.88;6.05;;;;;;;;;;5034298;28;20044;-68
2022/04/30 13:46:44;;;;;;;12.23;7.47;;;;;;;;;;5034261;28;20037;-68
2022/04/30 13:49:10;;;;;;;8.07;6.03;;;;;;;;;;5031025;28;20034;-69
2022/04/30 13:51:36;;;;;;;8.35;5.80;;;;;;;;;;5033256;28;20025;-69
2022/04/30 13:54:02;;;;;;;9.15;6.40;;;;;;;;;;5031076;28;20075;-69
2022/04/30 13:56:28;;;;;;;13.00;7.68;;;;;;;;;;5033392;28;20671;-69
2022/04/30 13:58:57;;;;;;;10.60;7.97;;;;;;;;;;5027575;28;20682;-69
2022/04/30 14:01:22;;;;;;;10.70;7.88;;;;;;;;;;5029886;28;20037;-68
2022/04/30 14:03:48;;;;;;;16.25;8.85;;;;;;;;;;5030755;28;20060;-68
2022/04/30 14:06:13;;;;;;;12.50;8.00;;;;;;;;;;5026121;28;20507;-69
2022/04/30 14:08:38;;;;;;;11.90;8.50;;;;;;;;;;5035390;28;20033;-68
2022/04/30 14:11:04;;;;;;;13.40;7.80;;;;;;;;;;5031375;28;20107;-68
2022/04/30 14:16:14;;;;;;;11.98;7.35;;;;;;;;;;5034600;28;20047;-68
2022/04/30 14:18:40;;;;;;;13.73;7.65;;;;;;;;;;5029035;28;20120;-68
2022/04/30 14:21:08;;;;;;;14.15;8.30;;;;;;;;;;5033224;28;20112;-69
2022/04/30 14:23:35;;;;;;;11.68;6.75;;;;;;;;;;5045068;28;20520;-69
2022/04/30 14:26:01;;;;;;;10.95;7.75;;;;;;;;;;5032145;28;20056;-69
2022/04/30 14:28:26;;;;;;;12.38;7.03;;;;;;;;;;5048683;28;20421;-69
2022/04/30 14:30:52;;;;;;;11.73;7.80;;;;;;;;;;5045517;28;20045;-69
2022/04/30 14:33:17;;;;;;;11.18;6.93;;;;;;;;;;5039537;28;20846;-69
2022/04/30 14:35:43;;;;;;;10.05;6.57;;;;;;;;;;5035246;28;20067;-68
2022/04/30 14:38:11;;;;;;;10.15;6.88;;;;;;;;;;5038024;28;20423;-69
2022/04/30 14:40:39;;;;;;;13.30;6.90;;;;;;;;;;5036000;28;20506;-69
2022/04/30 14:43:08;;;;;;;10.10;6.30;;;;;;;;;;5028494;28;20037;-68
2022/04/30 14:45:34;;;;;;;11.00;6.90;;;;;;;;;;5038805;28;20082;-69
2022/04/30 14:48:00;;;;;;;12.77;6.75;;;;;;;;;;5046717;28;20021;-69
2022/04/30 14:50:26;;;;;;;10.40;6.43;;;;;;;;;;5033647;28;20048;-70
2022/04/30 14:52:52;;;;;;;9.80;5.68;;;;;;;;;;5039240;28;20041;-70
2022/04/30 14:55:17;;;;;;;9.32;5.22;;;;;;;;;;5038515;28;20120;-69
2022/04/30 14:57:42;;;;;;;11.10;5.78;;;;;;;;;;5040336;28;20099;-69
2022/04/30 15:00:08;;;;;;;10.65;5.68;;;;;;;;;;5039311;28;20139;-69
2022/04/30 15:02:34;;;;;;;8.70;5.93;;;;;;;;;;5037355;28;20137;-69
2022/04/30 15:04:59;;;;;;;10.90;6.35;;;;;;;;;;5036822;28;20527;-68
2022/04/30 15:07:24;;;;;;;9.10;5.63;;;;;;;;;;5035684;28;20535;-68
2022/04/30 15:09:50;;;;;;;9.27;6.05;;;;;;;;;;5043623;28;20041;-70
2022/04/30 15:12:15;;;;;;;13.07;5.70;;;;;;;;;;5039730;28;20108;-69
2022/04/30 15:14:41;;;;;;;7.82;5.18;;;;;;;;;;5041820;28;20479;-68
2022/04/30 15:17:07;;;;;;;11.27;5.63;;;;;;;;;;5032295;28;20052;-69
2022/04/30 15:19:33;;;;;;;10.25;5.47;;;;;;;;;;5041211;28;20532;-69